Terminal Aerodrome Forecast
Issued by NWS

Home | Current Version | Previous Version | Text Only | Print | Product List | Glossary On
Versions: 1 2 3 4 5 6 7 8 9 10 11 12 13 14 15 16 17 18 19 20
616
FTUS41 KCAR 250706 AAA
TAFBHB
TAF AMD
KBHB 250706Z 2507/2606 VRB03KT P6SM OVC110
     FM250800 33005KT P6SM BKN060
     FM251600 34009KT P6SM SCT140
     FM260200 04007KT P6SM FEW250=

USA.gov is the U.S. government's official web portal to all federal, state and local government web resources and services.